Time;durP1;ratioP1;P1;durP2;ratioP2;P2;SDS_P1;SDS_P2;PMS_P1;PMS_P2;Temp;Humidity;BMP_temperature;BMP_pressure;BME280_temperature;BME280_humidity;BME280_pressure;Samples;Min_cycle;Max_cycle;Signal;HPM_P1;HPM_P2
2022/09/14 00:01:35;;;;;;;6.63;2.45;;;;;;;17.97;97.64;100431.44;7390053;19;20483;-79
2022/09/14 00:04:16;;;;;;;7.03;1.20;;;;;;;17.97;97.84;100434.09;7387408;19;20019;-79
2022/09/14 00:06:44;;;;;;;3.97;1.10;;;;;;;17.95;97.83;100435.13;7386664;19;20514;-78
2022/09/14 00:09:20;;;;;;;3.00;1.08;;;;;;;17.93;97.62;100437.16;7385417;19;20086;-79
2022/09/14 00:11:49;;;;;;;3.95;0.80;;;;;;;17.91;97.24;100433.09;7390474;19;20017;-79
2022/09/14 00:14:22;;;;;;;5.50;1.00;;;;;;;17.88;97.20;100436.16;7388663;19;20010;-79
2022/09/14 00:16:50;;;;;;;6.28;1.63;;;;;;;17.88;96.88;100426.34;7390979;19;20015;-78
2022/09/14 00:19:25;;;;;;;7.35;1.25;;;;;;;17.87;96.51;100422.06;7389535;19;20018;-79
2022/09/14 00:21:55;;;;;;;4.75;1.08;;;;;;;17.86;96.38;100419.59;7392577;19;20018;-79
2022/09/14 00:24:24;;;;;;;2.83;0.85;;;;;;;17.87;96.34;100419.41;7388158;19;20010;-78
2022/09/14 00:26:52;;;;;;;4.03;1.13;;;;;;;17.88;95.47;100412.19;7390070;19;20010;-78
2022/09/14 00:29:19;;;;;;;3.63;0.82;;;;;;;17.88;94.92;100412.19;7386808;19;20031;-80
2022/09/14 00:31:47;;;;;;;1.85;0.60;;;;;;;17.80;94.97;100410.63;7388731;19;20014;-79
2022/09/14 00:34:17;;;;;;;4.28;1.23;;;;;;;17.77;95.60;100407.56;7388151;19;20011;-79
2022/09/14 00:36:47;;;;;;;4.63;1.00;;;;;;;17.76;96.11;100406.75;7384553;19;20030;-78
2022/09/14 00:39:16;;;;;;;5.60;1.08;;;;;;;17.73;96.21;100401.81;7385638;19;20031;-79
2022/09/14 00:41:46;;;;;;;4.85;0.85;;;;;;;17.75;96.53;100404.28;7388616;19;20022;-79
2022/09/14 00:44:13;;;;;;;4.07;0.80;;;;;;;17.70;95.59;100399.59;7381482;19;20013;-79
2022/09/14 00:46:44;;;;;;;4.93;0.90;;;;;;;17.69;95.97;100395.28;7387675;19;20043;-80
2022/09/14 00:49:29;;;;;;;3.78;1.08;;;;;;;17.70;96.71;100390.78;7385889;19;20396;-80
2022/09/14 00:52:07;;;;;;;4.95;0.90;;;;;;;17.71;97.59;100389.75;7388152;19;20018;-78
2022/09/14 00:54:38;;;;;;;2.08;0.90;;;;;;;17.68;96.93;100385.66;7386813;19;20472;-79
2022/09/14 00:57:06;;;;;;;3.03;0.63;;;;;;;17.67;96.76;100380.56;7386592;19;20017;-80
2022/09/14 00:59:37;;;;;;;3.35;0.70;;;;;;;17.67;97.00;100376.06;7384043;19;20018;-80
2022/09/14 01:02:07;;;;;;;5.43;0.93;;;;;;;17.69;97.30;100373.19;7388133;19;20040;-79
2022/09/14 01:04:37;;;;;;;5.35;1.17;;;;;;;17.71;97.47;100371.94;7384042;19;20024;-78
2022/09/14 01:07:31;;;;;;;5.03;1.40;;;;;;;17.73;98.11;100361.91;7386034;19;20861;-78
2022/09/14 01:10:04;;;;;;;6.30;1.00;;;;;;;17.74;97.54;100362.72;7383058;19;20048;-78
2022/09/14 01:12:41;;;;;;;5.55;0.70;;;;;;;17.72;97.43;100351.47;7385107;19;20135;-79
2022/09/14 01:15:19;;;;;;;3.33;0.95;;;;;;;17.71;97.39;100360.50;7375859;19;20014;-78
2022/09/14 01:18:26;;;;;;;5.80;0.90;;;;;;;17.72;97.09;100356.81;7383160;19;20044;-79
2022/09/14 01:21:06;;;;;;;3.80;1.27;;;;;;;17.69;96.94;100359.88;7383802;19;20010;-79
2022/09/14 01:24:05;;;;;;;6.23;1.10;;;;;;;17.66;97.29;100349.66;7385730;19;20045;-79
2022/09/14 01:26:47;;;;;;;6.63;1.10;;;;;;;17.66;96.79;100345.16;7385062;19;20277;-78
2022/09/14 01:29:32;;;;;;;5.72;1.65;;;;;;;17.64;97.25;100349.03;7384954;19;20380;-79
2022/09/14 01:32:12;;;;;;;3.90;0.82;;;;;;;17.62;97.16;100337.81;7385071;19;20049;-79
2022/09/14 01:34:50;;;;;;;3.15;1.25;;;;;;;17.62;97.70;100335.16;7386515;19;20037;-79
2022/09/14 01:37:21;;;;;;;8.38;1.73;;;;;;;17.62;97.32;100329.81;7387911;19;20014;-79
2022/09/14 01:39:56;;;;;;;5.20;1.10;;;;;;;17.60;97.24;100329.22;7387575;19;20014;-78
2022/09/14 01:42:26;;;;;;;7.00;1.23;;;;;;;17.61;97.45;100333.50;7384804;19;20448;-79
2022/09/14 01:44:58;;;;;;;5.68;1.50;;;;;;;17.60;97.76;100335.34;7384607;19;20014;-78
2022/09/14 01:47:36;;;;;;;4.70;1.52;;;;;;;17.59;98.27;100335.53;7384235;19;20010;-80
2022/09/14 01:50:09;;;;;;;4.18;1.50;;;;;;;17.60;98.11;100331.88;7386715;19;20468;-79
2022/09/14 01:53:08;;;;;;;6.00;1.75;;;;;;;17.61;97.54;100325.53;7386934;19;20010;-79
2022/09/14 01:55:43;;;;;;;6.82;1.52;;;;;;;17.60;97.31;100322.03;7385646;19;20014;-78
2022/09/14 01:58:27;;;;;;;7.25;1.55;;;;;;;17.61;97.68;100322.88;7383147;19;20052;-79
2022/09/14 02:00:56;;;;;;;3.20;1.17;;;;;;;17.57;97.68;100318.97;7383026;19;20372;-78
2022/09/14 02:03:32;;;;;;;6.82;2.17;;;;;;;17.57;98.05;100319.78;7385382;19;20346;-78
2022/09/14 02:06:24;;;;;;;3.30;1.48;;;;;;;17.56;98.16;100325.31;7383813;19;20010;-78
2022/09/14 02:08:52;;;;;;;6.55;2.78;;;;;;;17.54;97.89;100314.88;7382558;19;20085;-77
2022/09/14 02:11:20;;;;;;;4.45;2.10;;;;;;;17.56;98.19;100320.81;7383739;19;20011;-78
2022/09/14 02:13:47;;;;;;;4.80;1.63;;;;;;;17.57;98.31;100316.31;7380911;19;20018;-79
2022/09/14 02:16:15;;;;;;;6.00;1.95;;;;;;;17.58;98.44;100318.72;7386058;19;20010;-79
2022/09/14 02:18:48;;;;;;;6.70;1.67;;;;;;;17.57;98.16;100310.97;7379513;19;20480;-77
2022/09/14 02:21:24;;;;;;;4.88;1.60;;;;;;;17.56;98.24;100309.34;7386962;19;20018;-77
2022/09/14 02:23:52;;;;;;;5.70;1.30;;;;;;;17.54;98.33;100312.22;7383325;19;20014;-78
2022/09/14 02:26:22;;;;;;;7.97;2.08;;;;;;;17.55;97.98;100305.88;7385837;19;20025;-79
2022/09/14 02:28:54;;;;;;;6.80;1.67;;;;;;;17.52;97.99;100309.75;7383251;19;20023;-79
2022/09/14 02:31:45;;;;;;;7.85;1.40;;;;;;;17.53;97.86;100308.72;7385084;19;20010;-80
2022/09/14 02:34:33;;;;;;;5.75;1.60;;;;;;;17.51;97.97;100310.81;7380321;19;20509;-79
2022/09/14 02:37:12;;;;;;;5.57;1.83;;;;;;;17.51;98.32;100310.81;7385628;19;20019;-79
2022/09/14 02:40:00;;;;;;;6.55;2.15;;;;;;;17.51;98.85;100305.47;7384799;19;20010;-79
2022/09/14 02:42:42;;;;;;;7.20;2.10;;;;;;;17.52;98.14;100296.44;7382460;19;20448;-79
2022/09/14 02:45:30;;;;;;;4.60;1.98;;;;;;;17.53;98.00;100306.06;7380260;19;20022;-79
2022/09/14 02:48:03;;;;;;;8.40;2.63;;;;;;;17.57;98.01;100300.34;7380674;19;20025;-80
2022/09/14 02:50:56;;;;;;;6.32;2.20;;;;;;;17.56;97.34;100296.03;7385430;19;20014;-78
2022/09/14 02:53:34;;;;;;;6.78;2.55;;;;;;;17.52;97.26;100298.31;7384139;19;20014;-78
2022/09/14 02:56:06;;;;;;;7.28;2.88;;;;;;;17.52;97.32;100291.13;7383985;19;20354;-78
2022/09/14 02:58:45;;;;;;;5.85;2.55;;;;;;;17.51;97.68;100294.03;7381931;19;20495;-79
2022/09/14 03:01:18;;;;;;;8.43;2.67;;;;;;;17.45;97.70;100287.69;7384268;19;20010;-79
2022/09/14 03:03:46;;;;;;;7.65;2.97;;;;;;;17.46;97.88;100284.00;7380222;19;20719;-78
2022/09/14 03:06:13;;;;;;;9.82;2.92;;;;;;;17.44;97.57;100277.25;7381024;19;20010;-77
2022/09/14 03:08:43;;;;;;;7.47;2.90;;;;;;;17.41;98.21;100281.16;7383714;19;20020;-79
2022/09/14 03:11:10;;;;;;;9.90;2.75;;;;;;;17.40;98.74;100276.06;7379452;19;20014;-79
2022/09/14 03:13:38;;;;;;;6.80;2.85;;;;;;;17.40;98.88;100270.72;7386497;19;20087;-79
2022/09/14 03:16:08;;;;;;;13.20;3.90;;;;;;;17.40;98.96;100282.19;7392130;19;20011;-79
2022/09/14 03:18:42;;;;;;;15.57;3.88;;;;;;;17.43;98.91;100267.63;7385549;19;20018;-78
2022/09/14 03:21:15;;;;;;;8.93;3.92;;;;;;;17.43;98.59;100270.28;7389496;19;20007;-79
2022/09/14 03:23:47;;;;;;;9.00;2.72;;;;;;;17.44;98.70;100271.94;7391813;19;20105;-78
2022/09/14 03:26:17;;;;;;;8.90;3.13;;;;;;;17.43;98.28;100276.44;7387078;19;20041;-79
2022/09/14 03:28:53;;;;;;;13.70;3.03;;;;;;;17.39;97.93;100274.41;7387903;19;20018;-79
2022/09/14 03:31:21;;;;;;;9.27;4.22;;;;;;;17.40;98.04;100270.72;7391142;19;20018;-79
2022/09/14 03:34:00;;;;;;;10.18;3.80;;;;;;;17.45;98.41;100277.06;7390187;19;20018;-80
2022/09/14 03:36:30;;;;;;;12.10;3.25;;;;;;;17.44;97.05;100272.75;7390306;19;20350;-80
2022/09/14 03:38:59;;;;;;;13.55;4.03;;;;;;;17.40;97.50;100268.88;7388091;19;20025;-78
2022/09/14 03:41:27;;;;;;;9.25;3.22;;;;;;;17.40;97.87;100273.38;7392496;19;20010;-79
2022/09/14 03:43:54;;;;;;;12.27;3.25;;;;;;;17.40;98.18;100266.22;7387358;19;20038;-78
2022/09/14 03:46:23;;;;;;;7.50;3.88;;;;;;;17.41;97.50;100272.38;7384790;19;20503;-79
2022/09/14 03:48:51;;;;;;;13.38;4.35;;;;;;;17.40;98.02;100271.56;7391271;19;20015;-79
2022/09/14 03:51:18;;;;;;;12.05;3.70;;;;;;;17.38;97.87;100268.28;7393330;19;20435;-79
2022/09/14 03:53:45;;;;;;;10.88;4.00;;;;;;;17.37;97.35;100258.66;7389170;19;20010;-79
2022/09/14 03:56:18;;;;;;;10.85;3.83;;;;;;;17.34;97.48;100258.28;7391578;19;20035;-79
2022/09/14 03:58:47;;;;;;;11.95;4.00;;;;;;;17.34;97.51;100256.44;7387080;19;20029;-79
2022/09/14 04:01:17;;;;;;;12.52;4.18;;;;;;;17.29;97.48;100252.75;7391968;19;20003;-79
2022/09/14 04:03:45;;;;;;;13.73;4.72;;;;;;;17.27;97.94;100250.31;7388272;19;20474;-79
2022/09/14 04:06:15;;;;;;;10.13;4.72;;;;;;;17.23;98.09;100248.28;7390035;19;20018;-80
2022/09/14 04:08:44;;;;;;;9.70;4.50;;;;;;;17.22;98.52;100252.00;7388879;19;20027;-79
2022/09/14 04:11:19;;;;;;;15.65;4.35;;;;;;;17.24;98.55;100242.75;7385947;19;20033;-79
2022/09/14 04:13:47;;;;;;;9.98;4.15;;;;;;;17.22;98.51;100241.34;7383306;19;20517;-79
2022/09/14 04:16:16;;;;;;;14.65;4.80;;;;;;;17.22;98.58;100247.47;7389327;19;20389;-79
2022/09/14 04:18:44;;;;;;;12.60;4.70;;;;;;;17.22;98.61;100252.00;7388019;19;20014;-79
2022/09/14 04:21:16;;;;;;;10.88;4.63;;;;;;;17.22;97.90;100246.69;7382087;19;20093;-79
2022/09/14 04:23:44;;;;;;;10.27;4.40;;;;;;;17.19;98.13;100250.56;7386618;19;20061;-79
2022/09/14 04:26:31;;;;;;;11.70;3.55;;;;;;;17.15;98.56;100256.50;7387488;19;20373;-78
2022/09/14 04:28:59;;;;;;;10.25;3.70;;;;;;;17.13;99.24;100250.56;7385535;19;20063;-80
2022/09/14 04:31:27;;;;;;;11.40;4.20;;;;;;;17.15;99.30;100257.31;7388978;19;20281;-78
2022/09/14 04:33:55;;;;;;;12.43;3.22;;;;;;;17.16;98.40;100251.00;7387247;19;20016;-79
2022/09/14 04:36:29;;;;;;;8.77;3.50;;;;;;;17.15;98.08;100245.88;7388683;19;20379;-80
2022/09/14 04:39:00;;;;;;;13.77;4.40;;;;;;;17.12;98.20;100249.75;7385516;19;20017;-78
2022/09/14 04:41:29;;;;;;;8.18;2.97;;;;;;;17.15;97.94;100246.69;7389815;19;20056;-80
2022/09/14 04:43:57;;;;;;;8.50;3.40;;;;;;;17.09;97.76;100252.84;7382096;19;20014;-78
2022/09/14 04:46:31;;;;;;;14.32;3.38;;;;;;;17.08;98.65;100249.34;7384819;19;20010;-79
2022/09/14 04:48:58;;;;;;;5.03;2.65;;;;;;;17.08;98.19;100251.19;7385865;19;20481;-78
2022/09/14 04:51:28;;;;;;;11.77;2.67;;;;;;;17.06;98.05;100248.78;7387270;19;20007;-80
2022/09/14 04:53:58;;;;;;;9.80;2.22;;;;;;;17.05;97.86;100241.00;7384328;19;20019;-80
2022/09/14 04:56:26;;;;;;;9.00;2.00;;;;;;;17.04;97.86;100245.50;7388798;19;20018;-80
2022/09/14 04:58:59;;;;;;;7.85;2.08;;;;;;;17.04;97.72;100237.53;7383517;19;20022;-79
2022/09/14 05:01:29;;;;;;;5.65;1.80;;;;;;;17.02;97.04;100233.41;7387330;19;20018;-80
2022/09/14 05:03:58;;;;;;;8.55;1.73;;;;;;;17.01;97.29;100239.78;7385524;19;20353;-78
2022/09/14 05:06:33;;;;;;;7.30;1.30;;;;;;;17.02;97.22;100236.91;7385478;19;20053;-80
2022/09/14 05:09:02;;;;;;;;;;;;;;;17.01;96.64;100239.78;7387162;19;20024;-79
2022/09/14 05:11:32;;;;;;;6.00;1.48;;;;;;;16.97;96.91;100233.22;7388153;19;19938;-79
2022/09/14 05:14:00;;;;;;;5.82;1.35;;;;;;;16.94;97.19;100233.66;7382345;19;20441;-80
2022/09/14 05:16:35;;;;;;;5.47;1.55;;;;;;;16.94;97.38;100231.81;7387319;19;20029;-80
2022/09/14 05:19:05;;;;;;;5.07;0.77;;;;;;;16.95;97.48;100241.44;7385373;19;20022;-80
2022/09/14 05:21:35;;;;;;;8.63;1.60;;;;;;;16.93;96.86;100235.50;7382532;19;20448;-78
2022/09/14 05:24:11;;;;;;;7.03;0.90;;;;;;;16.93;96.91;100230.19;7386884;19;20201;-79
2022/09/14 05:26:38;;;;;;;7.63;1.40;;;;;;;16.94;96.56;100228.34;7386324;19;20015;-79
2022/09/14 05:29:06;;;;;;;8.07;1.20;;;;;;;16.92;96.30;100227.72;7382317;19;20014;-79
2022/09/14 05:31:33;;;;;;;3.42;1.02;;;;;;;16.96;95.71;100229.78;7387493;19;20025;-79
2022/09/14 05:34:01;;;;;;;5.60;0.98;;;;;;;16.91;96.20;100226.94;7385829;19;20011;-79
2022/09/14 05:36:28;;;;;;;4.00;1.00;;;;;;;16.90;96.42;100221.81;7381746;19;20039;-79
2022/09/14 05:38:56;;;;;;;4.53;0.90;;;;;;;16.91;96.88;100224.28;7385071;19;20014;-79
2022/09/14 05:41:24;;;;;;;5.38;0.73;;;;;;;16.93;96.40;100224.88;7386558;19;20360;-79
2022/09/14 05:43:51;;;;;;;6.55;0.90;;;;;;;16.91;95.92;100234.91;7384030;19;20025;-79
2022/09/14 05:46:19;;;;;;;4.82;0.80;;;;;;;16.90;96.53;100214.66;7385006;19;20014;-80
2022/09/14 05:48:50;;;;;;;6.05;1.20;;;;;;;16.92;96.55;100217.91;7386692;19;20025;-79
2022/09/14 05:51:22;;;;;;;4.40;0.88;;;;;;;16.95;96.86;100220.19;7387830;19;20419;-79
2022/09/14 05:53:54;;;;;;;3.88;0.80;;;;;;;16.96;96.82;100224.47;7382342;19;20015;-79
2022/09/14 05:56:24;;;;;;;4.72;0.80;;;;;;;16.96;96.52;100218.34;7384201;19;20013;-78
2022/09/14 05:58:52;;;;;;;6.00;1.45;;;;;;;16.99;96.44;100229.34;7383168;19;20007;-79
2022/09/14 06:01:24;;;;;;;4.18;1.20;;;;;;;17.00;95.55;100228.34;7387716;19;20495;-78
2022/09/14 06:03:54;;;;;;;4.40;0.80;;;;;;;17.00;95.10;100230.16;7384640;19;20036;-79
2022/09/14 06:06:22;;;;;;;6.50;1.08;;;;;;;17.01;95.30;100231.81;7384663;19;20049;-79
2022/09/14 06:08:52;;;;;;;6.03;1.15;;;;;;;16.97;95.44;100230.56;7384990;19;20018;-79
2022/09/14 06:11:27;;;;;;;4.15;1.00;;;;;;;16.99;95.40;100231.19;7386217;19;20045;-80
2022/09/14 06:13:55;;;;;;;6.30;0.82;;;;;;;16.98;95.37;100229.56;7377779;19;20766;-79
2022/09/14 06:16:24;;;;;;;3.83;1.17;;;;;;;16.99;95.66;100229.34;7382176;19;20097;-78
2022/09/14 06:18:54;;;;;;;5.43;1.08;;;;;;;17.00;95.96;100220.34;7383586;19;20010;-79
2022/09/14 06:21:22;;;;;;;3.20;0.95;;;;;;;17.02;95.94;100234.25;7386036;19;20021;-79
2022/09/14 06:23:50;;;;;;;6.68;1.23;;;;;;;17.02;95.44;100231.59;7385222;19;20093;-79
2022/09/14 06:26:20;;;;;;;7.68;0.80;;;;;;;17.04;95.60;100234.03;7382641;19;20014;-79
2022/09/14 06:28:48;;;;;;;4.13;0.63;;;;;;;17.04;95.59;100232.19;7380201;19;20464;-79
2022/09/14 06:31:17;;;;;;;2.55;0.88;;;;;;;17.08;95.18;100230.75;7385095;19;20010;-78
2022/09/14 06:33:46;;;;;;;3.58;0.70;;;;;;;17.07;94.42;100233.59;7385283;19;20730;-80
2022/09/14 06:36:18;;;;;;;5.45;1.20;;;;;;;17.09;95.02;100231.56;7383481;19;20029;-78
2022/09/14 06:38:48;;;;;;;2.25;1.05;;;;;;;17.10;95.00;100234.03;7385797;19;20476;-79
2022/09/14 06:41:21;;;;;;;4.40;0.82;;;;;;;17.15;94.62;100238.72;7386462;19;20031;-79
2022/09/14 06:43:49;;;;;;;2.38;0.75;;;;;;;17.12;94.72;100243.63;7379292;19;20011;-80
2022/09/14 06:46:20;;;;;;;4.45;1.00;;;;;;;17.14;95.36;100241.56;7384856;19;20023;-80
2022/09/14 06:48:51;;;;;;;3.78;0.90;;;;;;;17.15;95.54;100243.22;7387365;19;20010;-80
2022/09/14 06:51:21;;;;;;;10.68;5.13;;;;;;;17.19;96.29;100244.41;7397085;19;20030;-80
2022/09/14 06:53:50;;;;;;;5.43;1.02;;;;;;;17.23;96.71;100237.66;7389491;19;20018;-79
2022/09/14 06:56:23;;;;;;;6.85;1.00;;;;;;;17.28;96.21;100240.50;7391638;19;20018;-80
2022/09/14 06:58:52;;;;;;;4.75;0.80;;;;;;;17.29;95.84;100240.28;7388230;19;20018;-79
2022/09/14 07:01:21;;;;;;;3.58;0.90;;;;;;;17.32;95.73;100239.06;7391323;19;20037;-79
2022/09/14 07:03:51;;;;;;;3.25;0.80;;;;;;;17.34;95.67;100226.34;7391833;19;20367;-80
2022/09/14 07:06:21;;;;;;;4.57;0.80;;;;;;;17.37;94.47;100231.28;7388874;19;20048;-79
2022/09/14 07:08:50;;;;;;;6.80;1.00;;;;;;;17.39;93.47;100234.50;7390671;19;20480;-79
2022/09/14 07:11:22;;;;;;;4.95;0.77;;;;;;;17.40;93.63;100242.28;7394348;19;20375;-78
2022/09/14 07:13:49;;;;;;;9.27;0.93;;;;;;;17.40;93.37;100244.13;7387247;19;20011;-79
2022/09/14 07:16:17;;;;;;;5.53;1.05;;;;;;;17.38;93.30;100238.19;7387423;19;20021;-80
2022/09/14 07:18:44;;;;;;;6.22;1.00;;;;;;;17.38;93.86;100241.69;7392698;19;20369;-78
2022/09/14 07:21:17;;;;;;;7.43;0.70;;;;;;;17.42;93.79;100244.75;7392711;19;20479;-77
2022/09/14 07:23:45;;;;;;;;;;;;;;;17.40;93.20;100239.63;7390497;19;20015;-80
2022/09/14 07:26:18;;;;;;;4.95;0.70;;;;;;;17.38;92.71;100241.69;7391571;19;19933;-80
2022/09/14 07:28:49;;;;;;;3.42;0.80;;;;;;;17.35;92.87;100246.59;7387352;19;20023;-80
2022/09/14 07:31:29;;;;;;;7.78;1.83;;;;;;;17.36;93.18;100243.75;7391426;19;20516;-79
2022/09/14 07:34:00;;;;;;;5.32;0.68;;;;;;;17.39;92.82;100247.81;7390356;19;20425;-80
2022/09/14 07:36:29;;;;;;;2.83;0.50;;;;;;;17.40;93.33;100239.63;7393312;19;20476;-79
2022/09/14 07:39:03;;;;;;;3.53;0.60;;;;;;;17.44;92.27;100240.00;7392449;19;20362;-79
2022/09/14 07:41:33;;;;;;;6.38;0.80;;;;;;;17.47;91.64;100252.91;7393738;19;20015;-79
2022/09/14 07:44:02;;;;;;;3.85;0.75;;;;;;;17.48;90.99;100250.00;7388007;19;20019;-79
2022/09/14 07:46:34;;;;;;;9.25;0.95;;;;;;;17.45;91.74;100255.78;7386923;19;20027;-79
2022/09/14 07:49:05;;;;;;;5.43;0.52;;;;;;;17.44;92.08;100248.81;7389799;19;20018;-80
2022/09/14 07:51:33;;;;;;;2.95;0.60;;;;;;;17.44;92.40;100253.31;7389933;19;20515;-79
2022/09/14 07:54:01;;;;;;;7.82;0.80;;;;;;;17.46;92.91;100254.75;7351732;19;20022;-80
2022/09/14 07:56:28;;;;;;;4.60;0.60;;;;;;;17.48;92.04;100254.50;7387673;19;20018;-78
2022/09/14 07:58:57;;;;;;;3.63;0.70;;;;;;;17.50;92.10;100252.47;7381035;19;20026;-78
2022/09/14 08:01:45;;;;;;;3.95;0.80;;;;;;;17.54;92.42;100253.69;7391719;19;20827;-77
2022/09/14 08:04:12;;;;;;;6.32;0.70;;;;;;;17.63;90.22;100262.25;7387411;19;20010;-79
2022/09/14 08:06:39;;;;;;;4.85;0.75;;;;;;;17.57;90.54;100255.13;7389909;19;20041;-79
2022/09/14 08:09:09;;;;;;;8.55;0.70;;;;;;;17.59;90.82;100255.69;7387313;19;20010;-80
2022/09/14 08:11:37;;;;;;;8.70;0.80;;;;;;;17.55;91.26;100252.66;7388545;19;20022;-80
2022/09/14 08:14:10;;;;;;;6.10;0.80;;;;;;;17.56;91.35;100253.47;7384271;19;20014;-79
2022/09/14 08:16:38;;;;;;;4.85;0.60;;;;;;;17.60;91.61;100254.69;7384556;19;20087;-78
2022/09/14 08:19:11;;;;;;;5.70;1.80;;;;;;;17.66;91.96;100264.50;7385694;19;20018;-77
2022/09/14 08:21:39;;;;;;;3.28;0.70;;;;;;;17.68;90.35;100257.94;7386724;19;20025;-77
2022/09/14 08:24:16;;;;;;;5.10;1.15;;;;;;;17.71;90.01;100256.69;7386496;19;20024;-78
2022/09/14 08:26:44;;;;;;;2.67;0.60;;;;;;;17.73;89.80;100265.25;7386410;19;20292;-77
2022/09/14 08:29:12;;;;;;;7.68;1.15;;;;;;;17.77;90.28;100256.66;7384876;19;20018;-77
2022/09/14 08:31:41;;;;;;;6.07;0.65;;;;;;;17.80;88.64;100266.88;7387473;19;20122;-78
2022/09/14 08:34:08;;;;;;;5.32;0.88;;;;;;;17.77;88.60;100267.31;7387507;19;20496;-78
2022/09/14 08:36:37;;;;;;;2.80;0.50;;;;;;;17.76;88.92;100267.53;7385665;19;20522;-79
2022/09/14 08:39:08;;;;;;;3.15;0.40;;;;;;;17.76;89.24;100268.34;7386020;19;20522;-77
2022/09/14 08:41:53;;;;;;;6.25;0.95;;;;;;;17.78;88.86;100268.09;7387024;19;20539;-78
2022/09/14 08:44:26;;;;;;;6.93;1.45;;;;;;;17.77;89.23;100259.34;7385040;19;20040;-77
2022/09/14 08:46:56;;;;;;;7.38;1.20;;;;;;;17.82;87.95;100258.69;7385806;19;20010;-77
2022/09/14 08:49:41;;;;;;;6.30;0.50;;;;;;;17.82;88.44;100259.50;7386498;19;20019;-77
2022/09/14 08:52:34;;;;;;;4.88;0.95;;;;;;;17.85;88.33;100256.41;7387717;19;20018;-78
2022/09/14 08:55:35;;;;;;;5.18;0.50;;;;;;;17.83;87.38;100266.44;7384118;19;20025;-78
2022/09/14 08:58:31;;;;;;;4.07;0.40;;;;;;;17.85;87.90;100271.56;7382897;19;20015;-78
2022/09/14 09:01:19;;;;;;;4.03;1.02;;;;;;;17.83;87.45;100270.94;7387742;19;20014;-78
2022/09/14 09:04:05;;;;;;;6.07;1.48;;;;;;;17.82;89.01;100270.16;7386478;19;20018;-78
2022/09/14 09:06:41;;;;;;;3.15;0.68;;;;;;;17.85;89.60;100274.22;7386715;19;20022;-78
2022/09/14 09:09:14;;;;;;;6.93;0.55;;;;;;;17.93;87.37;100272.09;7380721;19;20022;-77
2022/09/14 09:11:49;;;;;;;3.10;0.40;;;;;;;17.89;87.49;100273.56;7386325;19;20094;-76
2022/09/14 09:14:23;;;;;;;5.28;0.38;;;;;;;17.89;87.32;100278.91;7355780;19;20116;-78
2022/09/14 09:17:03;;;;;;;4.65;0.55;;;;;;;17.87;88.11;100272.16;7366282;19;20119;-79
2022/09/14 09:20:07;;;;;;;2.80;0.43;;;;;;;17.87;88.67;100270.31;7385317;19;20026;-80
2022/09/14 09:22:49;;;;;;;7.68;0.60;;;;;;;17.88;88.79;100263.13;7381612;19;20014;-79
2022/09/14 09:25:27;;;;;;;3.43;0.60;;;;;;;17.94;86.75;100271.09;7383640;19;20018;-79
2022/09/14 09:28:12;;;;;;;3.57;0.40;;;;;;;17.92;86.71;100267.84;7372256;19;20011;-79
2022/09/14 09:30:40;;;;;;;4.63;0.60;;;;;;;17.88;86.92;100268.44;7384445;19;20540;-78
2022/09/14 09:33:22;;;;;;;3.40;0.50;;;;;;;17.88;87.12;100268.44;7383976;19;20018;-79
2022/09/14 09:35:50;;;;;;;3.70;0.43;;;;;;;17.89;87.05;100270.09;7380281;19;20022;-78
2022/09/14 09:38:23;;;;;;;3.60;0.47;;;;;;;17.86;87.38;100274.00;7377504;19;20011;-78
2022/09/14 09:40:55;;;;;;;;;;;;;;;17.85;87.74;100271.56;7384856;19;20048;-80
2022/09/14 09:43:22;;;;;;;8.90;0.65;;;;;;;17.86;86.58;100273.19;7381927;19;20573;-79
2022/09/14 09:46:11;;;;;;;4.07;0.82;;;;;;;17.87;86.80;100274.84;7383935;19;20015;-80
2022/09/14 09:48:41;;;;;;;2.25;0.50;;;;;;;17.84;87.22;100267.25;7384131;19;20015;-78
2022/09/14 09:51:19;;;;;;;4.00;0.50;;;;;;;17.85;87.90;100268.91;7385506;19;20223;-79
2022/09/14 09:53:59;;;;;;;5.35;0.65;;;;;;;17.89;88.42;100262.94;7379208;19;20018;-79
2022/09/14 09:56:32;;;;;;;5.95;0.80;;;;;;;17.96;86.86;100265.56;7385933;19;20015;-79
2022/09/14 09:58:58;;;;;;;4.97;0.70;;;;;;;17.98;87.14;100268.81;7381163;19;20015;-79
2022/09/14 10:01:32;;;;;;;4.68;1.13;;;;;;;18.03;86.10;100265.53;7384241;19;20477;-79
2022/09/14 10:04:24;;;;;;;6.65;1.20;;;;;;;18.03;86.81;100265.53;7381326;19;20021;-79
2022/09/14 10:06:56;;;;;;;8.38;0.90;;;;;;;18.05;87.11;100268.75;7384669;19;20350;-80
2022/09/14 10:09:26;;;;;;;6.80;0.90;;;;;;;18.07;87.11;100262.22;7381370;19;20115;-80
2022/09/14 10:12:04;;;;;;;5.45;0.85;;;;;;;18.12;87.09;100270.38;7381922;19;20496;-80
2022/09/14 10:14:34;;;;;;;6.50;0.70;;;;;;;18.16;87.11;100274.22;7380784;19;20015;-79
2022/09/14 10:17:18;;;;;;;8.10;0.80;;;;;;;18.25;87.26;100259.59;7382844;19;20010;-79
2022/09/14 10:19:51;;;;;;;11.00;0.82;;;;;;;18.36;87.01;100258.09;7383034;19;20031;-79
2022/09/14 10:22:38;;;;;;;3.78;0.90;;;;;;;18.43;87.54;100256.19;7383670;19;20047;-79
2022/09/14 10:25:12;;;;;;;5.00;0.73;;;;;;;18.58;85.50;100253.22;7391115;19;20471;-80
2022/09/14 10:27:54;;;;;;;4.07;0.50;;;;;;;18.65;85.43;100251.28;7385204;19;20015;-79
2022/09/14 10:30:22;;;;;;;;;;;;;;;18.75;85.15;100259.59;7387710;19;20025;-80
2022/09/14 10:33:17;;;;;;;4.18;0.43;;;;;;;18.83;85.02;100248.66;7390736;19;20264;-80
2022/09/14 10:35:50;;;;;;;4.45;0.40;;;;;;;18.91;83.52;100243.03;7390026;19;20358;-78
2022/09/14 10:38:35;;;;;;;4.95;0.60;;;;;;;19.01;83.29;100251.34;7389184;19;20018;-80
2022/09/14 10:41:30;;;;;;;4.38;0.70;;;;;;;19.13;82.52;100246.91;7388305;19;20018;-79
2022/09/14 10:44:22;;;;;;;21.55;9.55;;;;;;;19.22;81.73;100250.88;7385905;19;20018;-80
2022/09/14 10:47:26;;;;;;;6.38;1.75;;;;;;;19.34;81.24;100240.28;7389663;19;20040;-79
2022/09/14 10:50:11;;;;;;;5.70;0.70;;;;;;;19.37;80.88;100249.69;7387153;19;20014;-79
2022/09/14 10:53:16;;;;;;;6.70;0.43;;;;;;;19.42;80.74;100242.63;7389668;19;20014;-79
2022/09/14 10:56:09;;;;;;;6.00;0.40;;;;;;;19.46;81.61;100243.84;7387898;19;20551;-80
2022/09/14 10:58:57;;;;;;;5.45;0.50;;;;;;;19.50;81.71;100230.88;7388980;19;20512;-79
2022/09/14 11:01:42;;;;;;;3.80;0.43;;;;;;;19.61;78.87;100246.09;7391359;19;20474;-79
2022/09/14 11:04:15;;;;;;;2.42;0.60;;;;;;;19.62;78.18;100248.56;7388029;19;20457;-80
2022/09/14 11:06:44;;;;;;;;;;;;;;;19.61;78.42;100244.25;7389881;19;20070;-78
2022/09/14 11:09:46;;;;;;;2.45;0.43;;;;;;;19.61;78.54;100244.25;7390208;19;20306;-80
2022/09/14 11:12:30;;;;;;;5.32;0.47;;;;;;;19.65;78.22;100244.63;7387309;19;20364;-78
2022/09/14 11:15:35;;;;;;;6.40;0.50;;;;;;;19.66;78.59;100245.44;7387639;19;20018;-80
2022/09/14 11:18:39;;;;;;;3.90;0.52;;;;;;;19.66;78.80;100245.44;7389443;19;20015;-80
2022/09/14 11:21:21;;;;;;;3.35;0.63;;;;;;;19.65;77.93;100249.97;7387843;19;20816;-80
2022/09/14 11:23:54;;;;;;;4.63;0.50;;;;;;;19.67;78.04;100249.72;7390604;19;20306;-79
2022/09/14 11:26:21;;;;;;;5.90;1.38;;;;;;;19.67;78.21;100247.88;7390685;19;20144;-79
2022/09/14 11:28:57;;;;;;;1.85;0.40;;;;;;;19.72;77.82;100252.53;7386722;19;20014;-80
2022/09/14 11:31:48;;;;;;;6.90;0.60;;;;;;;19.74;76.91;100251.28;7390864;19;20352;-80
2022/09/14 11:34:41;;;;;;;5.60;0.30;;;;;;;19.78;76.84;100248.97;7388852;19;20037;-80
2022/09/14 11:37:15;;;;;;;2.53;0.40;;;;;;;19.83;77.40;100260.59;7391962;19;20481;-79
2022/09/14 11:39:57;;;;;;;4.80;0.40;;;;;;;19.88;77.23;100262.56;7391653;19;20011;-80
2022/09/14 11:42:36;;;;;;;5.95;0.47;;;;;;;19.90;78.01;100266.66;7390492;19;20608;-80
2022/09/14 11:45:24;;;;;;;4.10;0.57;;;;;;;19.97;76.59;100259.34;7391426;19;20510;-80
2022/09/14 11:48:00;;;;;;;4.40;0.60;;;;;;;20.03;76.83;100257.63;7389540;19;20015;-79
2022/09/14 11:50:30;;;;;;;5.40;0.50;;;;;;;20.10;76.12;100262.88;7391933;19;20025;-80
2022/09/14 11:53:11;;;;;;;5.30;0.40;;;;;;;20.18;75.64;100257.19;7391220;19;20014;-79
2022/09/14 11:55:49;;;;;;;4.88;0.40;;;;;;;20.19;74.98;100258.81;7389123;19;20010;-79
2022/09/14 11:58:22;;;;;;;3.42;0.40;;;;;;;20.21;76.38;100249.56;7386271;19;20115;-78
2022/09/14 12:01:03;;;;;;;3.17;0.52;;;;;;;20.25;75.91;100265.94;7388683;19;20022;-78